createdAt,value
2022-10-23T00:00:43.999Z,11.57
2022-10-23T00:03:14.184Z,11.56
2022-10-23T00:05:45.215Z,11.50
2022-10-23T00:08:17.693Z,11.49
2022-10-23T00:10:47.764Z,11.48
2022-10-23T00:13:17.908Z,11.45
2022-10-23T00:18:41.137Z,11.52
2022-10-23T00:21:16.996Z,11.59
2022-10-23T00:23:47.494Z,11.51
2022-10-23T00:26:19.974Z,11.58
2022-10-23T00:28:51.939Z,11.46
2022-10-23T00:31:26.028Z,11.59
2022-10-23T00:33:56.249Z,11.63
2022-10-23T00:36:26.310Z,11.61
2022-10-23T00:38:57.635Z,11.64
2022-10-23T00:41:32.311Z,11.63
2022-10-23T00:44:07.079Z,11.59
2022-10-23T00:46:41.355Z,11.50
2022-10-23T00:52:06.174Z,11.46
2022-10-23T00:54:39.406Z,11.50
2022-10-23T00:57:14.420Z,11.49
2022-10-23T00:59:44.837Z,11.44
2022-10-23T01:02:18.449Z,11.50
2022-10-23T01:04:48.697Z,11.57
2022-10-23T01:07:23.146Z,11.56
2022-10-23T01:10:13.157Z,11.62
2022-10-23T01:12:50.009Z,11.59
2022-10-23T01:15:24.828Z,11.50
2022-10-23T01:18:04.803Z,11.40
2022-10-23T01:20:44.870Z,11.28
2022-10-23T01:23:29.307Z,11.20
2022-10-23T01:26:14.138Z,11.15
2022-10-23T01:28:51.527Z,11.20
2022-10-23T01:31:26.322Z,11.19
2022-10-23T01:34:02.677Z,11.20
2022-10-23T01:36:35.472Z,11.18
2022-10-23T01:39:09.879Z,11.11
2022-10-23T01:41:46.008Z,11.03
2022-10-23T01:44:25.004Z,10.89
2022-10-23T01:46:57.500Z,10.90
2022-10-23T01:49:27.805Z,10.82
2022-10-23T01:52:05.358Z,10.79
2022-10-23T01:54:41.986Z,10.71
2022-10-23T01:57:15.881Z,10.70
2022-10-23T01:59:50.430Z,10.72
2022-10-23T02:02:23.408Z,10.68
2022-10-23T02:04:59.837Z,10.61
2022-10-23T02:07:30.089Z,10.50
2022-10-23T02:10:00.240Z,10.46
2022-10-23T02:12:36.616Z,10.44
2022-10-23T02:15:15.081Z,10.43
2022-10-23T02:17:52.653Z,10.38
2022-10-23T02:20:26.759Z,10.34
2022-10-23T02:22:59.802Z,10.26
2022-10-23T02:25:36.370Z,10.21
2022-10-23T02:28:11.029Z,10.12
2022-10-23T02:30:46.943Z,10.04
2022-10-23T02:33:17.941Z,9.97
2022-10-23T02:35:49.399Z,9.82
2022-10-23T02:38:36.665Z,9.83
2022-10-23T02:41:19.084Z,9.78
2022-10-23T02:43:59.269Z,9.74
2022-10-23T02:46:45.503Z,9.69
2022-10-23T02:49:21.970Z,9.67
2022-10-23T02:52:02.752Z,9.61
2022-10-23T02:54:48.529Z,9.57
2022-10-23T02:57:25.688Z,9.55
2022-10-23T03:00:04.705Z,9.60
2022-10-23T03:02:41.872Z,9.63
2022-10-23T03:05:15.584Z,9.66
2022-10-23T03:07:47.035Z,9.66
2022-10-23T03:10:17.118Z,9.63
2022-10-23T03:12:47.538Z,9.55
2022-10-23T03:15:19.441Z,9.51
2022-10-23T03:17:52.186Z,9.47
2022-10-23T03:20:22.216Z,9.44
2022-10-23T03:22:52.352Z,9.38
2022-10-23T03:25:22.312Z,9.32
2022-10-23T03:27:54.538Z,9.32
2022-10-23T03:30:24.631Z,9.34
2022-10-23T03:32:57.236Z,9.33
2022-10-23T03:35:27.238Z,9.44
2022-10-23T03:37:57.291Z,9.63
2022-10-23T03:40:27.412Z,9.80
2022-10-23T03:42:57.549Z,9.98
2022-10-23T03:45:27.612Z,10.05
2022-10-23T03:48:00.262Z,10.11
2022-10-23T03:50:30.466Z,10.20
2022-10-23T03:53:00.712Z,10.17
2022-10-23T03:55:31.420Z,10.15
2022-10-23T03:58:01.647Z,10.16
2022-10-23T04:00:31.792Z,10.04
2022-10-23T04:03:04.523Z,9.92
2022-10-23T04:05:34.473Z,9.89
2022-10-23T04:08:05.162Z,9.83
2022-10-23T04:10:35.153Z,9.80
2022-10-23T04:13:05.220Z,9.75
2022-10-23T04:15:35.238Z,9.70
2022-10-23T04:18:08.452Z,9.65
2022-10-23T04:20:38.489Z,9.60
2022-10-23T04:23:08.794Z,9.55
2022-10-23T04:25:38.875Z,9.50
2022-10-23T04:28:09.001Z,9.46
2022-10-23T04:30:39.001Z,9.39
2022-10-23T04:33:11.668Z,9.34
2022-10-23T04:35:41.694Z,9.31
2022-10-23T04:38:11.680Z,9.28
2022-10-23T04:40:41.664Z,9.26
2022-10-23T04:43:12.070Z,9.28
2022-10-23T04:45:42.076Z,9.28
2022-10-23T04:48:15.985Z,9.33
2022-10-23T04:53:36.137Z,9.45
2022-10-23T04:56:06.231Z,9.42
2022-10-23T04:58:37.410Z,9.43
2022-10-23T05:01:07.597Z,9.41
2022-10-23T05:03:41.056Z,9.42
2022-10-23T05:06:11.127Z,9.44
2022-10-23T05:08:41.250Z,9.45
2022-10-23T05:11:11.276Z,9.46
2022-10-23T05:13:42.257Z,9.52
2022-10-23T05:16:12.628Z,9.67
2022-10-23T05:18:53.049Z,9.75
2022-10-23T05:21:26.534Z,9.76
2022-10-23T05:23:57.573Z,9.79
2022-10-23T05:26:28.226Z,9.87
2022-10-23T05:28:58.247Z,9.99
2022-10-23T05:31:28.827Z,10.08
2022-10-23T05:34:01.489Z,10.10
2022-10-23T05:36:31.613Z,10.25
2022-10-23T05:39:05.001Z,10.42
2022-10-23T05:41:35.112Z,10.43
2022-10-23T05:44:05.191Z,10.47
2022-10-23T05:46:35.204Z,10.52
2022-10-23T05:49:07.961Z,10.54
2022-10-23T05:51:39.618Z,10.61
2022-10-23T05:54:10.600Z,10.67
2022-10-23T05:56:42.304Z,10.73
2022-10-23T05:59:13.169Z,10.71
2022-10-23T06:01:43.604Z,10.75
2022-10-23T06:04:16.334Z,10.76
2022-10-23T06:06:49.181Z,10.65
2022-10-23T06:09:19.472Z,10.70
2022-10-23T06:11:50.309Z,10.69
2022-10-23T06:14:20.497Z,10.72
2022-10-23T06:16:50.620Z,10.71
2022-10-23T06:19:23.336Z,11.03
2022-10-23T06:21:53.390Z,11.27
2022-10-23T06:24:23.600Z,11.43
2022-10-23T06:26:53.557Z,11.55
2022-10-23T06:29:23.878Z,12.05
2022-10-23T06:31:53.926Z,12.57
2022-10-23T06:34:26.653Z,13.12
2022-10-23T06:36:56.742Z,13.37
2022-10-23T06:39:29.772Z,13.75
2022-10-23T06:42:02.122Z,14.24
2022-10-23T06:44:32.321Z,14.39
2022-10-23T06:47:02.421Z,14.53
2022-10-23T06:49:35.220Z,14.81
2022-10-23T06:52:05.214Z,14.80
2022-10-23T06:54:35.430Z,15.21
2022-10-23T06:57:05.559Z,15.43
2022-10-23T06:59:35.775Z,15.64
2022-10-23T07:02:06.423Z,15.43
2022-10-23T07:04:41.637Z,15.48
2022-10-23T07:07:11.727Z,15.64
2022-10-23T07:09:41.819Z,15.90
2022-10-23T07:12:12.016Z,16.22
2022-10-23T07:14:42.146Z,16.23
2022-10-23T07:17:12.240Z,16.22
2022-10-23T07:19:44.966Z,16.69
2022-10-23T07:22:16.094Z,16.23
2022-10-23T07:24:46.341Z,16.41
2022-10-23T07:27:16.452Z,16.27
2022-10-23T07:29:46.629Z,16.70
2022-10-23T07:32:16.735Z,16.97
2022-10-23T07:34:49.435Z,17.12
2022-10-23T07:37:19.542Z,17.23
2022-10-23T07:39:49.675Z,16.97
2022-10-23T07:42:19.793Z,16.90
2022-10-23T07:44:49.825Z,17.21
2022-10-23T07:47:19.890Z,17.34
2022-10-23T07:49:53.223Z,17.43
2022-10-23T07:52:23.352Z,17.62
2022-10-23T07:54:54.180Z,17.64
2022-10-23T07:57:24.335Z,17.67
2022-10-23T07:59:54.760Z,17.83
2022-10-23T08:02:25.807Z,17.64
2022-10-23T08:05:00.554Z,17.93
2022-10-23T08:07:33.792Z,18.10
2022-10-23T08:10:03.887Z,18.40
2022-10-23T08:12:34.029Z,18.51
2022-10-23T08:15:04.604Z,18.26
2022-10-23T08:17:34.770Z,18.41
2022-10-23T08:20:08.779Z,18.64
2022-10-23T08:22:39.175Z,18.99
2022-10-23T08:25:09.750Z,19.00
2022-10-23T08:27:40.049Z,19.32
2022-10-23T08:30:11.472Z,19.18
2022-10-23T08:32:41.741Z,19.44
2022-10-23T08:35:14.480Z,19.66
2022-10-23T08:37:44.938Z,19.98
2022-10-23T08:40:18.653Z,20.32
2022-10-23T08:42:55.368Z,20.53
2022-10-23T08:45:34.190Z,20.56
2022-10-23T08:48:12.841Z,20.64
2022-10-23T08:50:52.387Z,20.62
2022-10-23T08:53:28.492Z,20.79
2022-10-23T08:56:04.969Z,21.00
2022-10-23T08:58:45.952Z,20.99
2022-10-23T09:01:39.131Z,20.97
2022-10-23T09:04:09.641Z,21.23
2022-10-23T09:06:47.335Z,20.99
2022-10-23T09:09:34.971Z,21.07
2022-10-23T09:12:10.058Z,20.78
2022-10-23T09:15:05.662Z,20.61
2022-10-23T09:17:38.104Z,20.29
2022-10-23T09:20:27.408Z,20.37
2022-10-23T09:23:02.961Z,20.34
2022-10-23T09:25:41.272Z,20.31
2022-10-23T09:28:20.795Z,20.45
2022-10-23T09:30:52.239Z,19.98
2022-10-23T09:33:25.762Z,20.00
2022-10-23T09:36:00.781Z,19.99
2022-10-23T09:38:35.772Z,20.19
2022-10-23T09:41:13.990Z,20.18
2022-10-23T09:43:45.324Z,20.40
2022-10-23T09:46:15.785Z,20.44
2022-10-23T09:48:45.823Z,20.27
2022-10-23T09:51:21.675Z,20.15
2022-10-23T09:54:00.540Z,20.07
2022-10-23T09:56:34.234Z,20.10
2022-10-23T09:59:07.574Z,19.84
2022-10-23T10:01:48.289Z,19.94
2022-10-23T10:04:18.493Z,19.79
2022-10-23T10:07:02.008Z,19.81
2022-10-23T10:09:34.901Z,19.83
2022-10-23T10:12:23.016Z,19.81
2022-10-23T10:15:23.391Z,19.60
2022-10-23T10:18:04.919Z,19.69
2022-10-23T10:20:53.261Z,19.58
2022-10-23T10:23:35.354Z,19.62
2022-10-23T10:26:18.647Z,19.73
2022-10-23T10:28:58.441Z,19.62
2022-10-23T10:31:40.107Z,19.57
2022-10-23T10:34:18.125Z,19.66
2022-10-23T10:36:53.792Z,19.51
2022-10-23T10:39:38.475Z,19.42
2022-10-23T10:42:34.048Z,19.65
2022-10-23T10:45:19.856Z,19.29
2022-10-23T10:48:04.263Z,19.09
2022-10-23T10:50:42.880Z,18.76
2022-10-23T10:53:22.887Z,18.76
2022-10-23T10:55:56.493Z,18.91
2022-10-23T10:58:38.918Z,18.82
2022-10-23T11:01:18.692Z,18.64
2022-10-23T11:03:55.045Z,18.83
2022-10-23T11:06:30.073Z,18.89
2022-10-23T11:09:19.926Z,18.97
2022-10-23T11:11:53.242Z,19.02
2022-10-23T11:14:28.289Z,19.02
2022-10-23T11:17:17.161Z,18.97
2022-10-23T11:19:52.369Z,18.81
2022-10-23T11:22:30.550Z,18.76
2022-10-23T11:25:49.644Z,18.75
2022-10-23T11:28:31.270Z,18.72
2022-10-23T11:31:12.287Z,18.85
2022-10-23T11:34:16.578Z,18.98
2022-10-23T11:36:49.028Z,19.10
2022-10-23T11:39:23.391Z,18.95
2022-10-23T11:41:56.251Z,19.14
2022-10-23T11:44:30.578Z,19.11
2022-10-23T11:47:09.292Z,18.95
2022-10-23T11:49:39.400Z,18.91
2022-10-23T11:52:25.204Z,19.19
2022-10-23T11:55:04.918Z,19.15
2022-10-23T11:57:35.336Z,19.18
2022-10-23T12:00:06.024Z,19.29
2022-10-23T12:02:41.845Z,19.35
2022-10-23T12:05:34.943Z,19.30
2022-10-23T12:08:08.337Z,19.37
2022-10-23T12:10:46.626Z,19.29
2022-10-23T12:13:33.092Z,19.32
2022-10-23T12:16:03.268Z,19.35
2022-10-23T12:18:36.546Z,19.26
2022-10-23T12:21:07.456Z,19.37
2022-10-23T12:24:05.906Z,19.41
2022-10-23T12:26:51.448Z,19.33
2022-10-23T12:29:36.031Z,19.32
2022-10-23T12:32:20.068Z,19.31
2022-10-23T12:35:00.139Z,19.52
2022-10-23T12:37:59.566Z,19.70
2022-10-23T12:40:30.290Z,19.81
2022-10-23T12:43:05.075Z,19.77
2022-10-23T12:45:42.686Z,19.77
2022-10-23T12:48:22.318Z,19.78
2022-10-23T12:50:57.651Z,19.94
2022-10-23T12:53:27.859Z,19.98
2022-10-23T12:56:01.654Z,20.10
2022-10-23T12:58:34.149Z,20.20
2022-10-23T13:01:06.658Z,20.22
2022-10-23T13:03:37.858Z,20.24
2022-10-23T13:06:14.446Z,20.22
2022-10-23T13:08:47.761Z,20.29
2022-10-23T13:11:21.624Z,20.21
2022-10-23T13:13:51.862Z,20.26
2022-10-23T13:16:25.006Z,20.07
2022-10-23T13:18:56.234Z,20.22
2022-10-23T13:21:32.850Z,20.33
2022-10-23T13:24:03.101Z,20.30
2022-10-23T13:26:42.969Z,20.28
2022-10-23T13:29:22.704Z,20.17
2022-10-23T13:31:53.607Z,20.19
2022-10-23T13:34:29.835Z,20.18
2022-10-23T13:37:05.632Z,20.10
2022-10-23T13:39:37.182Z,20.08
2022-10-23T13:42:16.519Z,19.95
2022-10-23T13:44:46.977Z,20.00
2022-10-23T13:47:18.840Z,20.02
2022-10-23T13:49:49.408Z,19.87
2022-10-23T13:52:24.341Z,19.83
2022-10-23T13:54:54.877Z,19.82
2022-10-23T13:57:25.205Z,19.68
2022-10-23T13:59:55.809Z,19.55
2022-10-23T14:02:26.755Z,19.46
2022-10-23T14:04:57.061Z,19.38
2022-10-23T14:07:30.923Z,19.31
2022-10-23T14:10:01.303Z,19.30
2022-10-23T14:12:33.539Z,19.31
2022-10-23T14:15:03.746Z,19.12
2022-10-23T14:17:36.154Z,19.10
2022-10-23T14:20:07.428Z,19.00
2022-10-23T14:22:40.485Z,18.97
2022-10-23T14:25:11.611Z,18.88
2022-10-23T14:27:41.921Z,18.82
2022-10-23T14:30:14.294Z,18.70
2022-10-23T14:32:45.508Z,18.52
2022-10-23T14:35:16.089Z,18.56
2022-10-23T14:37:49.110Z,18.48
2022-10-23T14:40:19.419Z,18.42
2022-10-23T14:42:49.981Z,18.39
2022-10-23T14:45:21.786Z,18.31
2022-10-23T14:47:52.631Z,18.32
2022-10-23T14:50:22.945Z,18.24
2022-10-23T14:52:56.964Z,18.16
2022-10-23T14:55:27.342Z,18.01
2022-10-23T14:57:58.430Z,17.91
2022-10-23T15:00:29.679Z,17.80
2022-10-23T15:03:01.263Z,17.73
2022-10-23T15:05:32.034Z,17.62
2022-10-23T15:08:04.906Z,17.47
2022-10-23T15:10:40.094Z,17.38
2022-10-23T15:13:10.734Z,17.26
2022-10-23T15:15:41.414Z,17.14
2022-10-23T15:18:12.609Z,17.01
2022-10-23T15:20:45.858Z,16.87
2022-10-23T15:23:21.062Z,16.72
2022-10-23T15:25:58.289Z,16.59
2022-10-23T15:28:29.464Z,16.45
2022-10-23T15:31:00.101Z,16.34
2022-10-23T15:33:31.069Z,16.25
2022-10-23T15:36:04.340Z,16.16
2022-10-23T15:38:37.297Z,16.06
2022-10-23T15:41:18.254Z,15.94
2022-10-23T15:46:39.173Z,15.74
2022-10-23T15:49:11.396Z,15.61
2022-10-23T15:51:43.869Z,15.54
2022-10-23T15:54:19.288Z,15.43
2022-10-23T15:56:51.354Z,15.35
2022-10-23T15:59:23.933Z,15.28
2022-10-23T16:01:56.127Z,15.19
2022-10-23T16:04:28.656Z,15.11
2022-10-23T16:06:59.223Z,15.06
2022-10-23T16:09:35.748Z,14.99
2022-10-23T16:12:06.054Z,14.95
2022-10-23T16:14:39.477Z,14.94
2022-10-23T16:17:10.414Z,14.90
2022-10-23T16:19:40.926Z,14.85
2022-10-23T16:22:11.341Z,14.79
2022-10-23T16:24:44.435Z,14.74
2022-10-23T16:27:15.158Z,14.71
2022-10-23T16:29:46.328Z,14.69
2022-10-23T16:32:16.813Z,14.63
2022-10-23T16:34:47.273Z,14.61
2022-10-23T16:37:17.625Z,14.59
2022-10-23T16:39:51.140Z,14.56
2022-10-23T16:42:21.199Z,14.55
2022-10-23T16:44:52.154Z,14.58
2022-10-23T16:47:22.509Z,14.56
2022-10-23T16:49:53.454Z,14.59
2022-10-23T16:52:23.714Z,14.59
2022-10-23T16:54:57.222Z,14.56
2022-10-23T16:57:28.130Z,14.54
2022-10-23T16:59:58.883Z,14.54
2022-10-23T17:02:30.589Z,14.55
2022-10-23T17:05:01.258Z,14.57
2022-10-23T17:07:31.619Z,14.56
2022-10-23T17:10:08.093Z,14.53
2022-10-23T17:12:39.057Z,14.53
2022-10-23T17:15:11.387Z,14.49
2022-10-23T17:17:45.267Z,14.47
2022-10-23T17:20:16.958Z,14.45
2022-10-23T17:22:47.468Z,14.45
2022-10-23T17:25:20.528Z,14.41
2022-10-23T17:27:52.175Z,14.44
2022-10-23T17:30:25.122Z,14.48
2022-10-23T17:32:58.222Z,14.50
2022-10-23T17:35:31.767Z,14.50
2022-10-23T17:38:02.217Z,14.54
2022-10-23T17:40:36.171Z,14.46
2022-10-23T17:43:07.277Z,14.55
2022-10-23T17:45:40.491Z,14.55
2022-10-23T17:48:11.640Z,14.59
2022-10-23T17:50:42.274Z,14.58
2022-10-23T17:53:12.722Z,14.60
2022-10-23T17:55:46.039Z,14.62
2022-10-23T17:58:16.784Z,14.64
2022-10-23T18:00:47.165Z,14.68
2022-10-23T18:03:19.879Z,14.67
2022-10-23T18:05:50.935Z,14.70
2022-10-23T18:08:21.495Z,14.72
2022-10-23T18:10:54.734Z,14.79
2022-10-23T18:13:29.665Z,14.83
2022-10-23T18:16:03.750Z,14.86
2022-10-23T18:18:35.284Z,14.91
2022-10-23T18:21:06.434Z,14.93
2022-10-23T18:23:37.682Z,14.96
2022-10-23T18:26:18.023Z,15.05
2022-10-23T18:28:52.449Z,15.13
2022-10-23T18:31:25.197Z,15.12
2022-10-23T18:33:58.967Z,15.15
2022-10-23T18:36:33.297Z,15.20
2022-10-23T18:39:03.826Z,15.20
2022-10-23T18:41:40.612Z,15.22
2022-10-23T18:44:11.805Z,15.21
2022-10-23T18:46:42.715Z,15.12
2022-10-23T18:49:13.711Z,15.16
2022-10-23T18:51:44.722Z,15.11
2022-10-23T18:54:17.968Z,15.06
2022-10-23T18:56:53.106Z,15.06
2022-10-23T18:59:24.387Z,14.96
2022-10-23T19:01:55.469Z,15.01
2022-10-23T19:04:25.934Z,14.94
2022-10-23T19:06:56.437Z,14.98
2022-10-23T19:09:27.013Z,14.97
2022-10-23T19:12:04.568Z,14.93
2022-10-23T19:14:37.628Z,14.92
2022-10-23T19:17:15.406Z,14.91
2022-10-23T19:19:49.718Z,14.89
2022-10-23T19:22:20.681Z,14.92
2022-10-23T19:24:57.201Z,14.97
2022-10-23T19:27:31.016Z,14.88
2022-10-23T19:30:05.633Z,14.95
2022-10-23T19:32:36.191Z,14.89
2022-10-23T19:35:06.860Z,14.95
2022-10-23T19:37:37.978Z,14.90
2022-10-23T19:40:11.517Z,14.88
2022-10-23T19:42:45.545Z,14.91
2022-10-23T19:45:17.872Z,14.92
2022-10-23T19:47:51.389Z,14.92
2022-10-23T19:50:22.051Z,14.93
2022-10-23T19:52:53.875Z,14.90
2022-10-23T19:55:24.294Z,14.91
2022-10-23T19:57:57.514Z,14.93
2022-10-23T20:00:28.302Z,14.91
2022-10-23T20:02:59.027Z,14.89
2022-10-23T20:05:29.569Z,14.89
2022-10-23T20:08:01.809Z,14.90
2022-10-23T20:10:32.403Z,14.89
2022-10-23T20:13:18.634Z,14.88
2022-10-23T20:15:50.330Z,14.89
2022-10-23T20:18:20.917Z,14.87
2022-10-23T20:20:51.555Z,14.86
2022-10-23T20:23:21.950Z,14.83
2022-10-23T20:25:52.166Z,14.82
2022-10-23T20:28:25.056Z,14.84
2022-10-23T20:30:55.367Z,14.77
2022-10-23T20:33:25.713Z,14.80
2022-10-23T20:36:09.992Z,14.86
2022-10-23T20:38:40.325Z,14.85
2022-10-23T20:41:10.620Z,14.85
2022-10-23T20:43:44.086Z,14.88
2022-10-23T20:46:14.937Z,14.88
2022-10-23T20:48:46.993Z,14.86
2022-10-23T20:51:20.142Z,14.91
2022-10-23T20:53:50.931Z,14.93
2022-10-23T20:56:23.693Z,14.91
2022-10-23T20:58:56.409Z,14.89
2022-10-23T21:01:26.944Z,14.86
2022-10-23T21:03:59.007Z,14.86
2022-10-23T21:06:45.791Z,14.87
2022-10-23T21:09:22.158Z,14.90
2022-10-23T21:11:52.217Z,14.89
2022-10-23T21:14:24.885Z,14.86
2022-10-23T21:16:55.299Z,14.88
2022-10-23T21:19:25.388Z,14.89
2022-10-23T21:21:55.432Z,14.89
2022-10-23T21:24:25.990Z,14.86
2022-10-23T21:26:56.349Z,14.89
2022-10-23T21:29:28.938Z,14.90
2022-10-23T21:32:01.232Z,14.90
2022-10-23T21:34:31.597Z,14.91
2022-10-23T21:37:17.702Z,14.90
2022-10-23T21:39:48.985Z,14.89
2022-10-23T21:42:19.299Z,14.89
2022-10-23T21:44:51.941Z,14.89
2022-10-23T21:47:22.103Z,14.86
2022-10-23T21:49:52.068Z,14.91
2022-10-23T21:52:22.224Z,14.87
2022-10-23T21:54:54.740Z,14.87
2022-10-23T21:57:24.796Z,14.83
2022-10-23T21:59:57.431Z,14.84
2022-10-23T22:02:28.051Z,14.82
2022-10-23T22:04:58.114Z,14.86
2022-10-23T22:09:59.130Z,14.88
2022-10-23T22:12:31.621Z,14.90
2022-10-23T22:15:04.290Z,14.92
2022-10-23T22:17:34.338Z,14.87
2022-10-23T22:20:04.411Z,14.85
2022-10-23T22:22:34.494Z,14.84
2022-10-23T22:25:04.566Z,14.85
2022-10-23T22:27:34.577Z,14.91
2022-10-23T22:30:08.221Z,14.95
2022-10-23T22:32:38.734Z,14.95
2022-10-23T22:35:09.790Z,14.92
2022-10-23T22:37:39.855Z,14.88
2022-10-23T22:40:10.957Z,14.90
2022-10-23T22:42:41.162Z,14.91
2022-10-23T22:45:14.141Z,14.90
2022-10-23T22:47:44.209Z,14.90
2022-10-23T22:50:14.491Z,14.89
2022-10-23T22:52:44.903Z,14.84
2022-10-23T22:55:15.276Z,14.84
2022-10-23T22:57:45.648Z,14.85
2022-10-23T23:00:19.832Z,14.88
2022-10-23T23:02:49.921Z,14.86
2022-10-23T23:05:19.954Z,14.82
2022-10-23T23:07:50.244Z,14.81
2022-10-23T23:10:20.675Z,14.79
2022-10-23T23:12:53.217Z,14.78
2022-10-23T23:15:25.909Z,14.72
2022-10-23T23:17:56.053Z,14.75
2022-10-23T23:20:26.167Z,14.75
2022-10-23T23:22:56.157Z,14.69
2022-10-23T23:25:26.203Z,14.67
2022-10-23T23:27:56.352Z,14.70
2022-10-23T23:30:29.022Z,14.60
2022-10-23T23:32:59.100Z,14.61
2022-10-23T23:35:29.545Z,14.58
2022-10-23T23:37:59.690Z,14.57
2022-10-23T23:40:29.737Z,14.58
2022-10-23T23:42:59.834Z,14.56
2022-10-23T23:45:32.980Z,14.57
2022-10-23T23:48:03.207Z,14.53
2022-10-23T23:50:33.301Z,14.49
2022-10-23T23:53:03.361Z,14.46
2022-10-23T23:55:33.529Z,14.48
2022-10-23T23:58:03.741Z,14.49
